メインページ
METAR-TAF:

METAR-TAF

空港 :

ケロウナ国際空港

ケロウナ, ブリティッシュコロンビア州, カナダ

緯度: 49-58N, 経度: 119-23W, 海抜: 430m

現時点の気象観測

当レポートは52分前の08:00(UTC)に作成
北東の風 2kt
気温 12°C
湿度 76%
気圧 1017 hPa
視程: 14.5km
高度13000ftの雲は散在している

METAR: CYLW 230800Z AUTO 04002KT 9SM SCT130 12/08 A3002 RMK SLP166

時間: 01:52 (08:52 UTC)

予報

当レポートは2時間14分前の06:38(UTC)に作成
予報は23日の 07時(UTC)から 23日の 19時(UTC)まで有効
変向風 3kt
視程: 10km
高度8000ftの雲は散在している
高度12000ftの千切れ雲あり

TAF: CYLW 230638Z 2307/2319 VRB03KT P6SM SCT080 BKN120 RMK FCST BASED ON AUTO OBS. NXT FCST BY 231300Z

4,000以上の空港の気象観測と天気予報(METAR報とTAF報)

利用可能な観測所は地図上に黄色い丸と赤い丸で示す。

丸の上にカーソルを重ねると観測所名を参照できる。

次にクリックすると気象観測と天気予報を参照できる。

マップの切り替え:黒色「×」印の緑ボタンをクリックして拡大、「-」印の緑ボタンをクリックして縮小、緑色の三角印をクリックして隣りの地図に切り替え


METAR-TAF: